Time;durP1;ratioP1;P1;durP2;ratioP2;P2;SDS_P1;SDS_P2;PMS_P1;PMS_P2;Temp;Humidity;BMP_temperature;BMP_pressure;BME280_temperature;BME280_humidity;BME280_pressure;Samples;Min_cycle;Max_cycle;Signal;HPM_P1;HPM_P2
2022/04/02 00:02:23;;;;;;;4.72;3.30;;;1.90;87.60;;;;;;4995068;28;20271;-75
2022/04/02 00:04:48;;;;;;;7.00;4.00;;;1.90;86.90;;;;;;5000391;28;20056;-75
2022/04/02 00:07:15;;;;;;;6.95;3.85;;;1.90;86.90;;;;;;5021686;28;20042;-75
2022/04/02 00:09:40;;;;;;;5.55;4.07;;;1.90;87.00;;;;;;5021307;28;20048;-75
2022/04/02 00:12:08;;;;;;;6.35;3.50;;;1.90;87.00;;;;;;5000701;28;20454;-75
2022/04/02 00:14:34;;;;;;;5.55;3.40;;;1.90;87.00;;;;;;4980978;28;20033;-75
2022/04/02 00:16:59;;;;;;;5.72;3.45;;;1.90;87.00;;;;;;5006181;28;20045;-75
2022/04/02 00:19:25;;;;;;;8.70;3.60;;;1.90;87.00;;;;;;4978851;28;20037;-75
2022/04/02 00:21:51;;;;;;;10.02;3.78;;;1.90;87.00;;;;;;4971016;28;20129;-75
2022/04/02 00:24:16;;;;;;;5.57;3.97;;;1.90;87.00;;;;;;5022809;28;20140;-75
2022/04/02 00:26:42;;;;;;;4.72;3.85;;;1.90;87.00;;;;;;5002239;28;20264;-75
2022/04/02 00:29:10;;;;;;;5.68;3.75;;;2.00;87.00;;;;;;5011986;28;20601;-76
2022/04/02 00:31:36;;;;;;;7.38;3.83;;;2.00;87.10;;;;;;5022415;28;20025;-75
2022/04/02 00:34:02;;;;;;;6.80;3.50;;;2.00;87.00;;;;;;5026271;28;20113;-75
2022/04/02 00:36:27;;;;;;;5.53;3.70;;;2.00;87.00;;;;;;5018133;28;20089;-75
2022/04/02 00:38:53;;;;;;;6.55;3.63;;;2.00;87.00;;;;;;5035047;28;20806;-75
2022/04/02 00:41:19;;;;;;;8.48;4.32;;;2.00;87.00;;;;;;5021481;28;20116;-75
2022/04/02 00:44:06;;;;;;;7.65;3.60;;;2.00;87.00;;;;;;5008031;28;20109;-76
2022/04/02 00:46:32;;;;;;;6.07;4.25;;;2.00;87.20;;;;;;5009955;28;20057;-76
2022/04/02 00:48:57;;;;;;;4.72;4.15;;;2.00;87.00;;;;;;4982370;28;20034;-75
2022/04/02 00:51:23;;;;;;;8.82;4.40;;;2.10;87.00;;;;;;5040912;28;20029;-76
2022/04/02 00:53:49;;;;;;;4.65;3.88;;;2.00;86.90;;;;;;5003848;28;20038;-75
2022/04/02 00:56:15;;;;;;;5.45;3.58;;;2.00;86.90;;;;;;4996658;28;20041;-75
2022/04/02 00:58:41;;;;;;;8.63;4.07;;;2.00;86.90;;;;;;5017445;28;20113;-75
2022/04/02 01:01:06;;;;;;;4.80;3.50;;;2.00;87.00;;;;;;5044845;28;20040;-75
2022/04/02 01:03:33;;;;;;;8.45;4.35;;;2.00;87.00;;;;;;5006868;28;20041;-74
2022/04/02 01:05:59;;;;;;;9.27;3.78;;;2.00;86.90;;;;;;4980385;28;20026;-74
2022/04/02 01:08:24;;;;;;;8.30;4.05;;;2.00;86.90;;;;;;5035217;28;20040;-75
2022/04/02 01:10:50;;;;;;;6.07;3.67;;;2.00;87.00;;;;;;5032144;28;20048;-75
2022/04/02 01:13:16;;;;;;;7.47;4.20;;;2.00;87.00;;;;;;5005270;28;20033;-75
2022/04/02 01:15:42;;;;;;;7.88;3.60;;;2.00;87.10;;;;;;5001709;28;20041;-75
2022/04/02 01:18:08;;;;;;;5.82;4.32;;;2.00;87.10;;;;;;5008435;28;20049;-75
2022/04/02 01:20:34;;;;;;;7.43;4.00;;;1.90;87.00;;;;;;5002878;28;20048;-75
2022/04/02 01:23:00;;;;;;;5.38;3.80;;;2.00;87.10;;;;;;5025715;28;20030;-75
2022/04/02 01:25:31;;;;;;;5.95;3.78;;;2.00;87.10;;;;;;5015514;28;20037;-76
2022/04/02 01:28:00;;;;;;;7.18;3.15;;;1.90;87.00;;;;;;5006522;28;20081;-75
2022/04/02 01:30:26;;;;;;;8.35;3.58;;;1.90;87.00;;;;;;5017058;28;20482;-76
2022/04/02 01:32:52;;;;;;;8.13;3.92;;;2.00;87.10;;;;;;4987644;28;20033;-75
2022/04/02 01:35:20;;;;;;;6.32;3.70;;;2.00;87.10;;;;;;4996068;28;20132;-74
2022/04/02 01:37:45;;;;;;;7.53;3.90;;;2.00;87.20;;;;;;5008586;28;20041;-75
2022/04/02 01:40:11;;;;;;;4.72;3.53;;;2.00;87.10;;;;;;4990122;28;20072;-75
2022/04/02 01:42:36;;;;;;;6.50;3.83;;;2.00;87.10;;;;;;5007192;28;20321;-75
2022/04/02 01:45:03;;;;;;;5.38;3.22;;;2.00;87.20;;;;;;5015057;28;20057;-75
2022/04/02 01:47:28;;;;;;;13.20;3.47;;;1.90;87.20;;;;;;5030329;28;20313;-76
2022/04/02 01:49:54;;;;;;;6.15;3.58;;;1.90;87.20;;;;;;4993858;28;20069;-76
2022/04/02 01:52:20;;;;;;;4.45;3.15;;;1.90;87.20;;;;;;5010356;28;20525;-75
2022/04/02 01:54:46;;;;;;;7.70;3.45;;;1.80;87.20;;;;;;4994382;28;20029;-75
2022/04/02 01:57:11;;;;;;;6.32;3.13;;;1.80;87.40;;;;;;5020286;28;20073;-74
2022/04/02 01:59:39;;;;;;;6.22;3.17;;;1.80;87.40;;;;;;5004353;28;20052;-76
2022/04/02 02:02:05;;;;;;;9.23;3.45;;;1.80;87.30;;;;;;5013920;28;20116;-75
2022/04/02 02:04:33;;;;;;;7.85;2.85;;;1.90;87.40;;;;;;5042280;28;20105;-75
2022/04/02 02:06:59;;;;;;;7.68;3.15;;;1.90;87.40;;;;;;5021943;28;20471;-75
2022/04/02 02:09:24;;;;;;;4.80;3.10;;;1.90;87.40;;;;;;5003299;28;20033;-74
2022/04/02 02:11:50;;;;;;;4.65;3.40;;;1.90;87.30;;;;;;5014042;28;20120;-75
2022/04/02 02:14:15;;;;;;;9.20;2.70;;;1.80;87.30;;;;;;5016058;28;20052;-75
2022/04/02 02:16:41;;;;;;;4.68;2.97;;;1.80;87.40;;;;;;5013623;28;20032;-75
2022/04/02 02:19:06;;;;;;;4.57;2.70;;;1.80;87.40;;;;;;5030672;28;20075;-74
2022/04/02 02:21:32;;;;;;;5.65;3.25;;;1.80;87.50;;;;;;4988732;28;20068;-75
2022/04/02 02:23:58;;;;;;;3.85;2.90;;;1.80;87.50;;;;;;5017167;28;20065;-75
2022/04/02 02:26:24;;;;;;;5.28;2.92;;;1.80;87.50;;;;;;5016469;28;20374;-74
2022/04/02 02:28:49;;;;;;;4.90;2.50;;;1.80;87.50;;;;;;5000038;28;20046;-74
2022/04/02 02:31:15;;;;;;;4.85;2.70;;;1.80;87.50;;;;;;4999239;28;20099;-75
2022/04/02 02:36:25;;;;;;;3.42;2.55;;;1.80;87.50;;;;;;5015119;28;20061;-75
2022/04/02 02:38:51;;;;;;;4.38;3.05;;;1.80;87.50;;;;;;4996554;28;20037;-74
2022/04/02 02:41:16;;;;;;;3.45;2.70;;;1.70;87.60;;;;;;5005801;28;20029;-75
2022/04/02 02:43:42;;;;;;;5.63;2.90;;;1.80;87.60;;;;;;5000936;28;20109;-75
2022/04/02 02:46:08;;;;;;;4.50;2.45;;;1.80;87.50;;;;;;5019510;28;20059;-75
2022/04/02 02:48:34;;;;;;;8.18;3.10;;;1.80;87.60;;;;;;4992710;28;20089;-75
2022/04/02 02:51:00;;;;;;;4.78;2.20;;;1.80;87.60;;;;;;5012781;28;20050;-74
2022/04/02 02:53:25;;;;;;;6.13;2.60;;;1.80;87.60;;;;;;4998972;28;20133;-74
2022/04/02 02:55:51;;;;;;;3.83;2.70;;;1.80;87.70;;;;;;4985824;28;20037;-74
2022/04/02 02:58:16;;;;;;;6.90;2.90;;;1.80;87.70;;;;;;4996451;28;20056;-74
2022/04/02 03:00:42;;;;;;;3.50;2.50;;;1.80;87.70;;;;;;4996467;28;20061;-75
2022/04/02 03:03:09;;;;;;;4.65;2.55;;;1.80;87.70;;;;;;4984247;28;20529;-76
2022/04/02 03:05:34;;;;;;;5.35;2.70;;;1.80;87.70;;;;;;4998059;28;20040;-75
2022/04/02 03:08:01;;;;;;;5.57;2.90;;;1.80;87.70;;;;;;5033779;28;20041;-75
2022/04/02 03:10:27;;;;;;;4.18;2.45;;;1.80;87.70;;;;;;4963898;28;20041;-75
2022/04/02 03:12:54;;;;;;;3.25;2.40;;;1.80;87.70;;;;;;5013913;28;20053;-75
2022/04/02 03:15:20;;;;;;;3.60;2.47;;;1.80;87.70;;;;;;4984457;28;20045;-75
2022/04/02 03:17:46;;;;;;;3.72;2.25;;;1.80;87.70;;;;;;4975091;28;20050;-75
2022/04/02 03:20:12;;;;;;;3.15;2.38;;;1.80;87.70;;;;;;4995797;28;20113;-75
2022/04/02 03:22:40;;;;;;;4.45;2.30;;;1.80;87.70;;;;;;5008340;28;20563;-75
2022/04/02 03:25:10;;;;;;;3.13;2.10;;;1.80;87.70;;;;;;5002996;28;20033;-75
2022/04/02 03:27:36;;;;;;;4.05;2.08;;;1.80;87.70;;;;;;5019950;28;20144;-75
2022/04/02 03:30:03;;;;;;;5.65;2.28;;;1.80;87.70;;;;;;4989791;28;20034;-75
2022/04/02 03:32:28;;;;;;;4.35;2.25;;;1.70;87.70;;;;;;4983657;28;20029;-75
2022/04/02 03:34:54;;;;;;;2.10;1.73;;;1.70;87.80;;;;;;5015037;28;20105;-75
2022/04/02 03:37:19;;;;;;;1.95;1.77;;;1.70;87.90;;;;;;4999464;28;20085;-76
2022/04/02 03:39:45;;;;;;;3.90;2.03;;;1.70;87.90;;;;;;4996396;28;20050;-75
2022/04/02 03:42:10;;;;;;;3.42;2.05;;;1.70;87.90;;;;;;4982719;28;20053;-74
2022/04/02 03:44:36;;;;;;;3.58;2.20;;;1.60;87.90;;;;;;5014471;28;20545;-76
2022/04/02 03:47:09;;;;;;;2.63;2.05;;;1.60;87.90;;;;;;5004960;28;20065;-75
2022/04/02 03:49:44;;;;;;;3.13;1.98;;;1.60;87.90;;;;;;5021078;28;20034;-75
2022/04/02 03:52:10;;;;;;;3.63;2.10;;;1.60;87.90;;;;;;4996842;28;20037;-75
2022/04/02 03:54:35;;;;;;;3.63;1.98;;;1.60;87.90;;;;;;5013630;28;20469;-75
2022/04/02 03:57:05;;;;;;;4.03;2.35;;;1.60;87.90;;;;;;5010382;28;20085;-75
2022/04/02 03:59:30;;;;;;;4.40;2.35;;;1.60;87.90;;;;;;5006429;28;20040;-76
2022/04/02 04:01:56;;;;;;;4.55;2.60;;;1.60;87.90;;;;;;4998628;28;20030;-74
2022/04/02 04:04:22;;;;;;;4.15;2.13;;;1.60;87.90;;;;;;4990475;28;20072;-75
2022/04/02 04:06:48;;;;;;;5.28;2.13;;;1.60;87.90;;;;;;4981722;28;20037;-75
2022/04/02 04:09:14;;;;;;;5.57;2.47;;;1.60;87.90;;;;;;5002510;28;20045;-75
2022/04/02 04:11:39;;;;;;;3.58;1.73;;;1.60;87.90;;;;;;4990461;28;20088;-75
2022/04/02 04:14:05;;;;;;;4.78;2.15;;;1.60;88.00;;;;;;5032833;28;20060;-75
2022/04/02 04:16:30;;;;;;;3.88;1.90;;;1.60;87.90;;;;;;5003347;28;20049;-75
2022/04/02 04:18:56;;;;;;;3.22;2.03;;;1.60;87.90;;;;;;5028062;28;20044;-75
2022/04/02 04:21:22;;;;;;;5.72;2.80;;;1.60;87.90;;;;;;5011220;28;20472;-75
2022/04/02 04:23:47;;;;;;;5.43;2.40;;;1.60;87.80;;;;;;4999906;28;20037;-77
2022/04/02 04:26:13;;;;;;;8.20;2.50;;;1.60;87.70;;;;;;5009344;28;20053;-75
2022/04/02 04:28:39;;;;;;;6.68;2.97;;;1.50;87.60;;;;;;4994022;28;20032;-75
2022/04/02 04:31:04;;;;;;;11.43;3.42;;;1.60;87.70;;;;;;5016916;28;20116;-74
2022/04/02 04:33:30;;;;;;;6.13;2.70;;;1.50;87.60;;;;;;5017305;28;20038;-75
2022/04/02 04:35:56;;;;;;;6.00;2.70;;;1.50;87.60;;;;;;5033660;28;20049;-74
2022/04/02 04:38:22;;;;;;;4.20;2.40;;;1.50;87.60;;;;;;5011465;28;20152;-75
2022/04/02 04:40:47;;;;;;;3.90;2.70;;;1.50;87.70;;;;;;5015496;28;20025;-76
2022/04/02 04:43:13;;;;;;;5.65;2.63;;;1.50;87.60;;;;;;5013510;28;20026;-76
2022/04/02 04:45:38;;;;;;;6.00;2.75;;;1.50;87.60;;;;;;5038496;28;20045;-77
2022/04/02 04:48:04;;;;;;;7.78;3.30;;;1.50;87.60;;;;;;5017994;28;20045;-76
2022/04/02 04:50:30;;;;;;;6.88;2.70;;;1.40;87.60;;;;;;5022857;28;20148;-76
2022/04/02 04:52:55;;;;;;;7.85;3.03;;;1.40;87.60;;;;;;5040520;28;20064;-75
2022/04/02 04:55:21;;;;;;;3.05;2.72;;;1.40;87.60;;;;;;4991955;28;20073;-75
2022/04/02 04:57:49;;;;;;;3.85;2.50;;;1.30;87.60;;;;;;5008950;28;20036;-76
2022/04/02 05:00:15;;;;;;;7.65;2.70;;;1.30;87.60;;;;;;5020841;28;20045;-76
2022/04/02 05:02:44;;;;;;;5.65;3.25;;;1.30;87.60;;;;;;4973197;28;20045;-74
2022/04/02 05:05:11;;;;;;;4.28;2.60;;;1.30;87.60;;;;;;4975902;28;20077;-75
2022/04/02 05:07:38;;;;;;;7.13;3.22;;;1.30;87.60;;;;;;4996607;28;20114;-76
2022/04/02 05:10:03;;;;;;;4.68;2.83;;;1.30;87.60;;;;;;5010163;28;20060;-75
2022/04/02 05:12:29;;;;;;;7.00;3.10;;;1.30;87.60;;;;;;5020978;28;20034;-75
2022/04/02 05:14:54;;;;;;;5.93;3.47;;;1.30;87.60;;;;;;4993500;28;20041;-75
2022/04/02 05:17:20;;;;;;;8.32;3.10;;;1.40;87.60;;;;;;5003432;28;20088;-75
2022/04/02 05:19:45;;;;;;;7.45;2.97;;;1.30;87.50;;;;;;5010279;28;20029;-77
2022/04/02 05:22:11;;;;;;;5.88;3.10;;;1.30;87.50;;;;;;4969119;28;20049;-76
2022/04/02 05:24:37;;;;;;;5.35;3.42;;;1.40;87.50;;;;;;4966133;28;20022;-76
2022/04/02 05:27:03;;;;;;;8.95;3.45;;;1.30;87.40;;;;;;5017191;28;20026;-76
2022/04/02 05:29:29;;;;;;;7.85;3.58;;;1.30;87.30;;;;;;4967652;28;20514;-77
2022/04/02 05:31:55;;;;;;;8.75;3.83;;;1.30;87.30;;;;;;4983258;28;20036;-77
2022/04/02 05:34:20;;;;;;;36.17;24.00;;;1.20;87.30;;;;;;5003888;28;20037;-77
2022/04/02 05:36:46;;;;;;;8.98;5.53;;;1.20;87.30;;;;;;4984801;28;20049;-77
2022/04/02 05:39:12;;;;;;;15.70;11.48;;;1.20;87.40;;;;;;4975354;28;20090;-74
2022/04/02 05:41:37;;;;;;;9.18;6.68;;;1.20;87.50;;;;;;4956017;28;20038;-78
2022/04/02 05:44:05;;;;;;;6.25;4.07;;;1.30;87.50;;;;;;5009265;28;20034;-77
2022/04/02 05:46:30;;;;;;;9.45;7.78;;;1.30;87.40;;;;;;5013331;28;20037;-77
2022/04/02 05:48:57;;;;;;;9.38;6.35;;;1.30;87.40;;;;;;4995881;28;20034;-77
2022/04/02 05:51:23;;;;;;;8.07;4.03;;;1.30;87.30;;;;;;5005074;28;20119;-77
2022/04/02 05:53:48;;;;;;;5.95;4.32;;;1.30;87.30;;;;;;5009757;28;20034;-76
2022/04/02 05:56:14;;;;;;;17.05;15.07;;;1.30;87.20;;;;;;4987763;28;20041;-76
2022/04/02 05:58:39;;;;;;;7.00;4.97;;;1.40;87.30;;;;;;4978024;28;20149;-77
2022/04/02 06:01:06;;;;;;;6.53;4.03;;;1.40;87.30;;;;;;4979162;28;20065;-77
2022/04/02 06:03:32;;;;;;;8.32;5.40;;;1.40;87.20;;;;;;4981068;28;20119;-77
2022/04/02 06:05:58;;;;;;;9.75;4.80;;;1.40;87.10;;;;;;4978182;28;20041;-76
2022/04/02 06:08:24;;;;;;;9.07;5.22;;;1.40;87.10;;;;;;4981120;28;20057;-78
2022/04/02 06:10:49;;;;;;;8.95;4.68;;;1.40;87.00;;;;;;4980493;28;20689;-77
2022/04/02 06:13:15;;;;;;;8.05;5.78;;;1.50;87.00;;;;;;4991082;28;20069;-77
2022/04/02 06:15:41;;;;;;;6.95;4.45;;;1.50;86.90;;;;;;5035979;28;20028;-75
2022/04/02 06:18:09;;;;;;;9.27;4.25;;;1.50;86.90;;;;;;5002716;28;20034;-76
2022/04/02 06:20:34;;;;;;;7.07;4.65;;;1.50;86.90;;;;;;5023343;28;20059;-75
2022/04/02 06:23:00;;;;;;;6.18;4.68;;;1.50;86.90;;;;;;5008045;28;20458;-76
2022/04/02 06:25:26;;;;;;;7.30;4.60;;;1.50;86.90;;;;;;4997483;28;20025;-76
2022/04/02 06:27:52;;;;;;;9.63;5.13;;;1.60;86.90;;;;;;4999939;28;20025;-75
2022/04/02 06:30:18;;;;;;;8.32;4.88;;;1.60;86.90;;;;;;5006651;28;20026;-76
2022/04/02 06:32:44;;;;;;;7.65;4.10;;;1.60;86.80;;;;;;4996464;28;20053;-77
2022/04/02 06:35:10;;;;;;;7.70;4.78;;;1.70;86.80;;;;;;5009603;28;20037;-77
2022/04/02 06:37:36;;;;;;;8.13;4.80;;;1.70;86.60;;;;;;4992527;28;20026;-76
2022/04/02 06:40:04;;;;;;;10.85;4.93;;;1.70;86.50;;;;;;4979740;28;20510;-77
2022/04/02 06:42:29;;;;;;;5.70;3.83;;;1.70;86.40;;;;;;4973928;28;20034;-77
2022/04/02 06:44:55;;;;;;;6.47;4.75;;;1.70;86.30;;;;;;5023353;28;20144;-76
2022/04/02 06:47:27;;;;;;;7.22;4.22;;;1.80;86.30;;;;;;5031850;28;20031;-76
2022/04/02 06:49:53;;;;;;;6.65;4.18;;;1.80;86.20;;;;;;5017245;28;20026;-76
2022/04/02 06:52:19;;;;;;;10.40;5.88;;;1.80;86.10;;;;;;5027943;28;20053;-77
2022/04/02 06:54:45;;;;;;;9.55;4.10;;;1.90;86.10;;;;;;5029757;28;20056;-77
2022/04/02 06:57:10;;;;;;;12.25;4.63;;;1.90;85.90;;;;;;5032265;28;20026;-76
2022/04/02 06:59:36;;;;;;;8.93;4.32;;;1.90;85.80;;;;;;5019636;28;20089;-76
2022/04/02 07:02:01;;;;;;;10.00;3.60;;;2.00;85.60;;;;;;5035771;28;20037;-78
2022/04/02 07:04:27;;;;;;;5.07;2.97;;;2.00;85.60;;;;;;5017919;28;22784;-77
2022/04/02 07:06:52;;;;;;;5.78;3.42;;;2.00;85.40;;;;;;5001364;28;20103;-77
2022/04/02 07:09:18;;;;;;;6.40;3.33;;;2.00;85.30;;;;;;4994608;28;20029;-77
2022/04/02 07:11:44;;;;;;;6.25;3.63;;;2.00;85.20;;;;;;5001330;28;20041;-77
2022/04/02 07:14:10;;;;;;;6.25;3.92;;;2.00;85.20;;;;;;4996206;28;20093;-78
2022/04/02 07:16:36;;;;;;;4.20;3.13;;;2.10;85.10;;;;;;5023395;28;20053;-77
2022/04/02 07:19:02;;;;;;;6.20;3.40;;;2.10;85.00;;;;;;5019360;28;20076;-78
2022/04/02 07:21:28;;;;;;;5.70;3.70;;;2.20;84.90;;;;;;5012795;28;20056;-79
2022/04/02 07:23:54;;;;;;;14.68;5.60;;;2.20;84.80;;;;;;4996973;28;20045;-78
2022/04/02 07:26:19;;;;;;;14.00;5.53;;;2.30;84.80;;;;;;5012006;28;20030;-77
2022/04/02 07:28:45;;;;;;;12.68;4.63;;;2.30;84.70;;;;;;5017245;28;20030;-77
2022/04/02 07:31:10;;;;;;;14.63;4.80;;;2.40;84.60;;;;;;4991022;28;20034;-78
2022/04/02 07:33:36;;;;;;;6.13;4.47;;;2.40;84.50;;;;;;5006634;28;20064;-78
2022/04/02 07:36:08;;;;;;;8.80;4.82;;;2.50;84.50;;;;;;4998738;28;20025;-78
2022/04/02 07:38:43;;;;;;;10.55;4.32;;;2.50;84.30;;;;;;5015159;28;20165;-76
2022/04/02 07:41:36;;;;;;;7.13;3.65;;;2.50;84.10;;;;;;5019318;28;20045;-78
2022/04/02 07:44:21;;;;;;;12.88;5.00;;;2.50;83.90;;;;;;5013250;28;20033;-77
2022/04/02 07:46:47;;;;;;;13.38;5.53;;;2.50;83.70;;;;;;4998503;28;20037;-77
2022/04/02 07:49:12;;;;;;;10.57;4.05;;;2.50;83.60;;;;;;4986741;28;20042;-77
2022/04/02 07:51:38;;;;;;;6.88;3.10;;;2.50;83.60;;;;;;4999756;28;20036;-77
2022/04/02 07:54:05;;;;;;;8.65;4.18;;;2.50;83.40;;;;;;5008681;28;20041;-77
2022/04/02 07:56:34;;;;;;;6.65;4.13;;;2.50;83.30;;;;;;4980281;28;20064;-77
2022/04/02 07:59:01;;;;;;;5.97;3.38;;;2.60;83.40;;;;;;5002265;28;20041;-77
2022/04/02 08:01:27;;;;;;;8.75;3.72;;;2.60;83.40;;;;;;4983939;28;20085;-77
2022/04/02 08:03:53;;;;;;;14.40;4.03;;;2.70;83.30;;;;;;4981053;28;20064;-78
2022/04/02 08:06:21;;;;;;;6.95;3.33;;;2.80;83.30;;;;;;4989151;28;20037;-77
2022/04/02 08:08:46;;;;;;;3.83;2.83;;;2.80;83.10;;;;;;5013633;28;20579;-78
2022/04/02 08:11:12;;;;;;;8.98;3.13;;;2.90;83.10;;;;;;5012652;28;20120;-77
2022/04/02 08:13:40;;;;;;;4.72;3.13;;;3.00;83.10;;;;;;4986278;28;20061;-78
2022/04/02 08:16:05;;;;;;;7.22;3.28;;;3.00;82.90;;;;;;4997614;28;20208;-77
2022/04/02 08:18:31;;;;;;;8.13;3.25;;;3.10;82.80;;;;;;4986862;28;20573;-78
2022/04/02 08:20:56;;;;;;;5.57;3.65;;;3.20;82.70;;;;;;5020325;28;20060;-77
2022/04/02 08:23:22;;;;;;;5.55;3.53;;;3.20;82.40;;;;;;4983706;28;20034;-76
2022/04/02 08:25:59;;;;;;;6.55;3.28;;;3.20;82.20;;;;;;5000966;28;20030;-76
2022/04/02 08:28:28;;;;;;;5.43;3.15;;;3.20;82.10;;;;;;4981954;28;20402;-77
2022/04/02 08:31:04;;;;;;;5.03;3.40;;;3.30;82.10;;;;;;4971434;28;20034;-76
2022/04/02 08:33:38;;;;;;;4.53;3.00;;;3.30;81.80;;;;;;4992540;28;20042;-76
2022/04/02 08:36:21;;;;;;;6.13;2.88;;;3.30;81.60;;;;;;5015000;28;20100;-77
2022/04/02 08:38:50;;;;;;;7.63;3.70;;;3.30;81.50;;;;;;5008386;28;20042;-76
2022/04/02 08:41:53;;;;;;;5.72;3.42;;;3.30;81.60;;;;;;4990036;28;20040;-76
2022/04/02 08:44:53;;;;;;;8.10;4.55;;;3.40;81.30;;;;;;5018236;28;20041;-77
2022/04/02 08:47:54;;;;;;;7.53;4.40;;;3.40;81.20;;;;;;5014818;28;20188;-76
2022/04/02 08:50:19;;;;;;;7.45;3.78;;;3.40;80.90;;;;;;5007810;28;20064;-76
2022/04/02 08:52:53;;;;;;;5.07;3.58;;;3.40;81.10;;;;;;5002027;28;20038;-76
2022/04/02 08:55:36;;;;;;;56.30;29.65;;;3.40;80.90;;;;;;4968368;28;20066;-76
2022/04/02 08:58:11;;;;;;;144.30;49.78;;;3.40;81.00;;;;;;5014926;28;20053;-76
2022/04/02 09:01:18;;;;;;;9.57;5.65;;;3.40;80.90;;;;;;5000429;28;20042;-77
2022/04/02 09:04:02;;;;;;;4.45;3.28;;;3.50;80.70;;;;;;4984666;28;20037;-77
2022/04/02 09:06:43;;;;;;;4.95;4.00;;;3.60;80.70;;;;;;4998400;28;20177;-77
2022/04/02 09:09:33;;;;;;;9.07;4.05;;;3.70;80.70;;;;;;5016564;28;20021;-77
2022/04/02 09:12:08;;;;;;;4.55;3.50;;;3.70;80.60;;;;;;5030534;28;20037;-77
2022/04/02 09:14:52;;;;;;;7.07;4.88;;;3.80;80.70;;;;;;5033912;28;20109;-77
2022/04/02 09:17:51;;;;;;;4.95;3.40;;;3.90;80.30;;;;;;5024928;28;20045;-76
2022/04/02 09:20:29;;;;;;;5.95;4.03;;;4.00;80.10;;;;;;5028545;28;20207;-77
2022/04/02 09:23:24;;;;;;;8.25;4.10;;;4.10;80.10;;;;;;5013139;28;20028;-76
2022/04/02 09:26:27;;;;;;;46.80;16.23;;;4.10;79.50;;;;;;4996738;28;20033;-77
2022/04/02 09:29:04;;;;;;;16.08;7.15;;;4.20;79.60;;;;;;5032276;28;20041;-78
2022/04/02 09:31:39;;;;;;;11.73;4.85;;;4.20;79.70;;;;;;5025770;28;20048;-77
2022/04/02 09:34:10;;;;;;;12.60;5.93;;;4.30;79.80;;;;;;5022036;28;20044;-77
2022/04/02 09:36:59;;;;;;;40.20;12.55;;;4.50;79.70;;;;;;5012808;28;20121;-76
2022/04/02 09:39:43;;;;;;;38.75;11.15;;;4.50;79.50;;;;;;5020588;28;20168;-76
2022/04/02 09:42:27;;;;;;;8.98;4.30;;;4.60;79.30;;;;;;5023602;28;20057;-78
2022/04/02 09:45:16;;;;;;;35.65;11.25;;;4.70;78.80;;;;;;5023969;28;20044;-77
2022/04/02 09:47:51;;;;;;;9.93;4.95;;;4.70;78.80;;;;;;5023998;28;20156;-77
2022/04/02 09:50:19;;;;;;;7.57;4.13;;;4.80;78.80;;;;;;5013612;28;20033;-77
2022/04/02 09:53:14;;;;;;;10.40;5.05;;;4.90;78.60;;;;;;5013071;28;20113;-77
2022/04/02 09:56:01;;;;;;;10.25;4.35;;;4.90;78.10;;;;;;4994027;28;20038;-78
2022/04/02 09:58:48;;;;;;;9.50;4.95;;;5.00;77.80;;;;;;5004040;28;20044;-77
2022/04/02 10:01:17;;;;;;;10.68;4.38;;;5.00;77.90;;;;;;5010820;28;20049;-77
2022/04/02 10:04:20;;;;;;;8.73;4.60;;;5.00;77.80;;;;;;5006104;28;20029;-77
2022/04/02 10:06:49;;;;;;;8.77;4.32;;;5.00;77.30;;;;;;5015726;28;20041;-77
2022/04/02 10:09:20;;;;;;;6.93;4.68;;;5.00;77.50;;;;;;4991492;28;20057;-76
2022/04/02 10:11:52;;;;;;;8.77;4.18;;;5.00;77.50;;;;;;4964979;28;20029;-77
2022/04/02 10:14:23;;;;;;;7.35;4.32;;;5.00;77.20;;;;;;4978557;28;20048;-78
2022/04/02 10:17:06;;;;;;;11.70;4.93;;;5.10;77.30;;;;;;4979749;28;20722;-76
2022/04/02 10:19:33;;;;;;;5.68;3.97;;;5.10;76.80;;;;;;5003093;28;20056;-77
2022/04/02 10:22:06;;;;;;;11.80;6.63;;;5.10;77.10;;;;;;4982965;28;20513;-77
2022/04/02 10:24:48;;;;;;;13.95;7.05;;;5.20;76.70;;;;;;5019354;28;21155;-77
2022/04/02 10:27:17;;;;;;;;;;;5.20;76.40;;;;;;5003791;28;20100;-77
2022/04/02 10:30:01;;;;;;;32.90;13.98;;;5.20;76.70;;;;;;4984844;28;19932;-76
2022/04/02 10:32:33;;;;;;;16.08;7.63;;;5.20;76.40;;;;;;4997541;28;20090;-77
2022/04/02 10:35:04;;;;;;;15.13;7.90;;;5.20;76.50;;;;;;5004235;28;20129;-77
2022/04/02 10:37:40;;;;;;;18.83;9.27;;;5.20;76.50;;;;;;4968970;28;20084;-76
2022/04/02 10:40:07;;;;;;;9.30;6.22;;;5.20;76.30;;;;;;5010139;28;20100;-78
2022/04/02 10:42:38;;;;;;;13.80;8.23;;;5.30;76.50;;;;;;4992797;28;20103;-78
2022/04/02 10:45:10;;;;;;;9.63;5.97;;;5.30;76.40;;;;;;4954648;28;20309;-76
2022/04/02 10:47:42;;;;;;;7.72;4.55;;;5.30;76.10;;;;;;5001704;28;20268;-76
2022/04/02 10:50:08;;;;;;;7.63;4.72;;;5.40;76.00;;;;;;4988736;28;20118;-77
2022/04/02 10:52:36;;;;;;;5.03;4.03;;;5.40;75.80;;;;;;4998931;28;20077;-77
2022/04/02 10:55:02;;;;;;;9.48;5.10;;;5.30;75.80;;;;;;4999795;28;20038;-77
2022/04/02 10:57:29;;;;;;;9.57;4.55;;;5.30;75.90;;;;;;5005511;28;20513;-76
2022/04/02 11:00:00;;;;;;;6.68;4.25;;;5.30;75.80;;;;;;4967081;28;20034;-77
2022/04/02 11:02:26;;;;;;;7.78;5.05;;;5.40;75.60;;;;;;5000700;28;20048;-77
2022/04/02 11:05:04;;;;;;;9.55;4.22;;;5.50;75.70;;;;;;4995895;28;20026;-77
2022/04/02 11:07:31;;;;;;;6.93;4.88;;;5.60;75.30;;;;;;4985933;28;20029;-78
2022/04/02 11:09:57;;;;;;;10.02;4.70;;;5.70;75.50;;;;;;5006981;28;20034;-77
2022/04/02 11:12:28;;;;;;;7.82;4.22;;;5.70;75.20;;;;;;4989602;28;20021;-78
2022/04/02 11:14:53;;;;;;;6.72;4.30;;;5.70;74.90;;;;;;5007324;28;20041;-78
2022/04/02 11:17:30;;;;;;;10.98;4.00;;;5.70;74.90;;;;;;4985853;28;20037;-78
2022/04/02 11:20:10;;;;;;;8.80;4.03;;;5.70;74.60;;;;;;5007779;28;20042;-76
2022/04/02 11:22:43;;;;;;;5.55;4.18;;;5.60;74.40;;;;;;5017585;28;20061;-78
2022/04/02 11:25:19;;;;;;;8.80;4.22;;;5.60;74.60;;;;;;5004865;28;20065;-78
2022/04/02 11:27:45;;;;;;;10.38;4.65;;;5.60;74.50;;;;;;4989537;28;20029;-78
2022/04/02 11:30:11;;;;;;;6.15;3.83;;;5.60;74.60;;;;;;5009930;28;20048;-78
2022/04/02 11:32:44;;;;;;;7.43;4.68;;;5.60;74.30;;;;;;5013671;28;20033;-78
2022/04/02 11:35:23;;;;;;;5.63;4.32;;;5.50;74.30;;;;;;5007252;28;20064;-78
2022/04/02 11:37:56;;;;;;;7.28;4.30;;;5.50;74.20;;;;;;5009940;28;20565;-77
2022/04/02 11:40:22;;;;;;;8.38;4.32;;;5.50;74.10;;;;;;4992895;28;20099;-77
2022/04/02 11:42:48;;;;;;;8.77;4.97;;;5.60;74.20;;;;;;4996186;28;20057;-78
2022/04/02 11:45:17;;;;;;;6.88;4.10;;;5.60;74.10;;;;;;4979089;28;20038;-78
2022/04/02 11:47:48;;;;;;;5.30;3.28;;;5.60;74.00;;;;;;5019753;28;20030;-78
2022/04/02 11:50:14;;;;;;;3.92;3.53;;;5.60;73.80;;;;;;5001946;28;20117;-78
2022/04/02 11:52:53;;;;;;;4.13;3.67;;;5.60;73.70;;;;;;4984562;28;20091;-78
2022/04/02 11:55:18;;;;;;;4.80;3.40;;;5.50;73.30;;;;;;5007182;28;20041;-79
2022/04/02 11:58:02;;;;;;;4.28;3.65;;;5.50;73.70;;;;;;4979597;28;20033;-78
2022/04/02 12:00:29;;;;;;;6.53;4.30;;;5.40;73.20;;;;;;4999426;28;20048;-79
2022/04/02 12:02:57;;;;;;;6.50;3.72;;;5.40;73.60;;;;;;4985334;28;20506;-78
2022/04/02 12:05:34;;;;;;;6.32;3.50;;;5.40;73.30;;;;;;4965864;28;20054;-78
2022/04/02 12:08:15;;;;;;;;;;;;;;;;;;;;;
2022/04/02 12:10:47;;;;;;;8.13;3.60;;;5.40;73.50;;;;;;4993090;28;20094;-78
2022/04/02 12:13:13;;;;;;;6.50;3.45;;;5.40;73.40;;;;;;4989144;28;20112;-77
2022/04/02 12:15:39;;;;;;;7.32;4.22;;;5.40;73.30;;;;;;5019477;28;20124;-78
2022/04/02 12:18:08;;;;;;;7.93;5.07;;;5.40;73.10;;;;;;5017667;28;20372;-78
2022/04/02 12:20:38;;;;;;;7.63;4.60;;;5.40;73.10;;;;;;4995207;28;20041;-78
2022/04/02 12:23:16;;;;;;;4.30;3.42;;;5.50;73.30;;;;;;5002780;28;20047;-78
2022/04/02 12:26:01;;;;;;;5.85;3.35;;;5.50;72.80;;;;;;5004962;28;20160;-78
2022/04/02 12:28:26;;;;;;;6.55;4.00;;;5.50;72.80;;;;;;4981244;28;20104;-79
2022/04/02 12:30:53;;;;;;;4.68;3.20;;;5.50;73.20;;;;;;4985856;28;20093;-79
2022/04/02 12:33:21;;;;;;;6.50;3.28;;;5.50;73.00;;;;;;5012377;28;20038;-79
2022/04/02 12:35:54;;;;;;;5.43;3.63;;;5.60;73.00;;;;;;4997181;28;20099;-78
2022/04/02 12:38:30;;;;;;;4.30;3.17;;;5.60;72.60;;;;;;5006981;28;20033;-77
2022/04/02 12:40:57;;;;;;;6.57;3.42;;;5.50;72.40;;;;;;4991383;28;20041;-79
2022/04/02 12:43:27;;;;;;;4.20;3.35;;;5.50;72.50;;;;;;4995364;28;20131;-77
2022/04/02 12:45:58;;;;;;;5.10;3.58;;;5.50;72.40;;;;;;5006328;28;20101;-77
2022/04/02 12:48:25;;;;;;;7.50;3.60;;;5.40;72.40;;;;;;4976864;28;20037;-79
2022/04/02 12:50:58;;;;;;;6.30;3.33;;;5.40;72.50;;;;;;4964133;28;20537;-78
2022/04/02 12:53:31;;;;;;;7.18;3.20;;;5.40;72.30;;;;;;5014606;28;20046;-79
2022/04/02 12:56:01;;;;;;;7.90;3.50;;;5.40;72.20;;;;;;5015821;28;20053;-77
2022/04/02 12:58:33;;;;;;;6.78;3.20;;;5.40;72.20;;;;;;5004860;28;20041;-76
2022/04/02 13:01:20;;;;;;;5.90;3.50;;;5.40;72.00;;;;;;5010634;28;20498;-76
2022/04/02 13:04:08;;;;;;;9.98;4.25;;;5.40;71.70;;;;;;5020698;28;20040;-77
2022/04/02 13:06:35;;;;;;;6.18;3.53;;;5.40;72.10;;;;;;5023526;28;20037;-77
2022/04/02 13:09:05;;;;;;;6.75;3.00;;;5.40;72.20;;;;;;5008478;28;21144;-76
2022/04/02 13:11:37;;;;;;;8.13;4.43;;;5.30;72.00;;;;;;4993530;28;20087;-76
2022/04/02 13:14:04;;;;;;;8.48;3.80;;;5.30;71.90;;;;;;4990545;28;20030;-76